Sunday, May 27, 2018, 5:51 PM GMT
Back to Local

CWNQ, Nicolet Automatic Weather Reporting System

Location: , , Canada Lat: 46.217
Local Time: 5:51 PM GMT (17:51 GMT) Lon: -72.65
Time Zone: GMT Elev: 32 ft

Show me the last for .
Show Coded

Time T Td Feel RH Dir Speed Gust Alt SLP Vis Weather Sky Remarks
2018-05-27 17:00 68 46 - 44 130° 7 - - 30.08 0 None
2018-05-27 16:00 70 44 - 39 120° 7 - - 30.08 0 None
2018-05-27 15:00 64 46 - 52 30° 6 - - 30.10 0 None
2018-05-27 14:00 61 44 - 54 40° 6 - - 30.11 0 None
2018-05-27 13:00 59 38 - 45 60° 9 - - 30.10 0 None
2018-05-27 12:00 54 35 - 47 50° 9 - - 30.09 0 None
2018-05-27 11:00 53 35 - 51 60° 9 - - 30.09 0 None
2018-05-27 10:00 50 35 46 57 50° 9 - - 30.08 0 None
2018-05-27 09:00 49 36 46 59 50° 9 - - 30.08 0 None
2018-05-27 08:00 50 37 46 61 40° 10 - - 30.07 0 None
2018-05-27 07:00 51 37 - 58 60° 9 - - 30.06 0 None
2018-05-27 06:00 51 37 - 56 50° 8 - - 30.06 0 None
2018-05-27 05:00 52 37 - 57 50° 7 - - 30.05 0 None
2018-05-27 04:00 54 38 - 54 50° 6 - - 30.04 0 None
2018-05-27 03:00 58 38 - 47 60° 7 - - 30.02 0 None
2018-05-27 02:00 60 47 - 62 40° 7 - - 30.00 0 None
2018-05-27 01:00 63 33 - 33 30° 3 - - 29.97 0 None
2018-05-27 00:00 67 32 - 26 30° 5 - - 29.94 0 None
2018-05-26 23:00 69 31 - 24 30° 3 - - 29.92 0 None
2018-05-26 22:00 71 33 - 24 20° 5 - - 29.90 0 None
2018-05-26 21:00 72 29 - 20 60° 8 - - 29.88 0 None
2018-05-26 20:00 73 28 - 19 30° 9 - - 29.86 0 None
2018-05-26 19:00 71 36 - 27 20° 5 - - 29.85 0 None
2018-05-26 18:00 71 33 - 24 360° 8 - - 29.83 0 None

Support USWX by starting your Amazon purchase here.